Time;durP1;ratioP1;P1;durP2;ratioP2;P2;SDS_P1;SDS_P2;PMS_P1;PMS_P2;Temp;Humidity;BMP_temperature;BMP_pressure;BME280_temperature;BME280_humidity;BME280_pressure;Samples;Min_cycle;Max_cycle;Signal;HPM_P1;HPM_P2
2023/04/09 00:00:25;;;;;;;;;;;;;;;5.90;nan;102241.91;4141091;28;19929;-66
2023/04/09 00:02:27;;;;;;;;;;;;;;;5.86;nan;102253.81;4139841;28;20302;-66
2023/04/09 00:04:30;;;;;;;;;;;;;;;5.75;nan;102246.53;4140518;28;19926;-66
2023/04/09 00:06:32;;;;;;;;;;;;;;;5.62;nan;102251.03;4140095;28;19936;-66
2023/04/09 00:08:35;;;;;;;;;;;;;;;5.51;nan;102257.16;4139491;28;19926;-66
2023/04/09 00:10:37;;;;;;;;;;;;;;;5.47;nan;102253.84;4140265;28;19929;-66
2023/04/09 00:12:39;;;;;;;;;;;;;;;5.45;nan;102252.22;4139580;28;19930;-66
2023/04/09 00:14:41;;;;;;;;;;;;;;;5.46;nan;102251.25;4140175;28;19932;-66
2023/04/09 00:16:43;;;;;;;;;;;;;;;5.46;nan;102249.44;4139425;28;19929;-66
2023/04/09 00:18:46;;;;;;;;;;;;;;;5.44;nan;102250.50;4139718;28;19936;-66
2023/04/09 00:20:49;;;;;;;;;;;;;;;5.38;nan;102251.78;4140039;28;19930;-66
2023/04/09 00:22:51;;;;;;;;;;;;;;;5.35;nan;102252.84;4139311;28;19929;-65
2023/04/09 00:24:54;;;;;;;;;;;;;;;5.36;nan;102249.22;4140062;28;19926;-66
2023/04/09 00:26:56;;;;;;;;;;;;;;;5.37;nan;102245.56;4139489;28;19929;-66
2023/04/09 00:28:58;;;;;;;;;;;;;;;5.35;nan;102243.97;4139898;28;19932;-66
2023/04/09 00:31:00;;;;;;;;;;;;;;;5.32;nan;102246.84;4145393;28;19929;-66
2023/04/09 00:33:03;;;;;;;;;;;;;;;5.27;nan;102247.16;4139212;28;19929;-66
2023/04/09 00:35:05;;;;;;;;;;;;;;;5.18;nan;102250.47;4146008;28;20406;-66
2023/04/09 00:37:09;;;;;;;;;;;;;;;5.14;nan;102249.84;4139523;28;20403;-66
2023/04/09 00:39:11;;;;;;;;;;;;;;;5.15;nan;102259.56;4145478;28;19932;-66
2023/04/09 00:41:14;;;;;;;;;;;;;;;5.10;nan;102247.47;4139815;28;20306;-66
2023/04/09 00:43:16;;;;;;;;;;;;;;;5.09;nan;102249.25;4139329;28;19929;-66
2023/04/09 00:45:18;;;;;;;;;;;;;;;5.12;nan;102238.34;4139623;28;20418;-66
2023/04/09 00:47:21;;;;;;;;;;;;;;;5.17;nan;102249.63;4144841;28;19932;-66
2023/04/09 00:49:23;;;;;;;;;;;;;;;5.19;nan;102249.53;4152824;28;19929;-66
2023/04/09 00:51:27;;;;;;;;;;;;;;;5.20;nan;102248.53;4139483;28;19926;-66
2023/04/09 00:53:30;;;;;;;;;;;;;;;5.18;nan;102243.28;4144802;28;19925;-66
2023/04/09 00:55:33;;;;;;;;;;;;;;;5.14;nan;102247.16;4139861;28;19926;-66
2023/04/09 00:57:35;;;;;;;;;;;;;;;5.09;nan;102243.06;4139363;28;19948;-66
2023/04/09 00:59:37;;;;;;;;;;;;;;;5.03;nan;102245.19;4140037;28;19939;-66
2023/04/09 01:01:39;;;;;;;;;;;;;;;4.97;nan;102244.75;4140222;28;20391;-66
2023/04/09 01:03:41;;;;;;;;;;;;;;;4.88;nan;102243.56;4138734;28;20167;-66
2023/04/09 01:05:44;;;;;;;;;;;;;;;4.80;nan;102240.53;4140052;28;19948;-66
2023/04/09 01:07:53;;;;;;;;;;;;;;;4.75;nan;102238.16;4144627;28;20474;-66
2023/04/09 01:10:12;;;;;;;;;;;;;;;4.73;nan;102239.22;4145272;28;19929;-66
2023/04/09 01:12:21;;;;;;;;;;;;;;;4.68;nan;102240.38;4160441;28;20573;-66
2023/04/09 01:14:25;;;;;;;;;;;;;;;4.71;nan;102235.78;4139643;28;19949;-66
2023/04/09 01:16:29;;;;;;;;;;;;;;;4.74;nan;102244.47;4144952;28;19925;-66
2023/04/09 01:18:33;;;;;;;;;;;;;;;4.76;nan;102233.66;4138004;28;20303;-66
2023/04/09 01:20:38;;;;;;;;;;;;;;;4.77;nan;102235.38;4145855;28;20287;-66
2023/04/09 01:22:42;;;;;;;;;;;;;;;4.79;nan;102244.16;4137516;28;19929;-66
2023/04/09 01:24:50;;;;;;;;;;;;;;;4.81;nan;102237.75;4145215;28;20387;-66
2023/04/09 01:27:02;;;;;;;;;;;;;;;4.79;nan;102237.00;4142673;28;19925;-66
2023/04/09 01:29:16;;;;;;;;;;;;;;;4.72;nan;102237.50;4162104;28;19925;-66
2023/04/09 01:31:19;;;;;;;;;;;;;;;4.69;nan;102242.09;4139994;28;19936;-66
2023/04/09 01:33:21;;;;;;;;;;;;;;;4.72;nan;102245.53;4137990;28;19932;-66
2023/04/09 01:35:23;;;;;;;;;;;;;;;4.74;nan;102241.78;4139807;28;19930;-66
2023/04/09 01:37:25;;;;;;;;;;;;;;;4.74;nan;102243.63;4138991;28;19936;-66
2023/04/09 01:39:27;;;;;;;;;;;;;;;4.74;nan;102248.97;4139431;28;19930;-66
2023/04/09 01:41:31;;;;;;;;;;;;;;;4.70;nan;102253.66;4145086;28;19925;-66
2023/04/09 01:43:36;;;;;;;;;;;;;;;4.65;nan;102245.94;4139100;28;19925;-66
2023/04/09 01:45:39;;;;;;;;;;;;;;;4.63;nan;102237.16;4145515;28;20323;-66
2023/04/09 01:47:41;;;;;;;;;;;;;;;4.65;nan;102251.28;4138952;28;19956;-66
2023/04/09 01:49:44;;;;;;;;;;;;;;;4.66;nan;102253.00;4139198;28;19938;-66
2023/04/09 01:51:46;;;;;;;;;;;;;;;4.60;nan;102241.84;4144330;28;20375;-66
2023/04/09 01:53:48;;;;;;;;;;;;;;;4.51;nan;102245.97;4153218;28;20363;-66
2023/04/09 01:55:50;;;;;;;;;;;;;;;4.48;nan;102243.50;4137962;28;19930;-66
2023/04/09 01:57:53;;;;;;;;;;;;;;;4.46;nan;102248.09;4153041;28;19929;-66
2023/04/09 01:59:55;;;;;;;;;;;;;;;4.42;nan;102249.25;4153974;28;19929;-66
2023/04/09 02:02:00;;;;;;;;;;;;;;;4.38;nan;102247.75;4138132;28;20399;-66
2023/04/09 02:04:02;;;;;;;;;;;;;;;4.34;nan;102252.44;4144591;28;20464;-66
2023/04/09 02:06:05;;;;;;;;;;;;;;;4.32;nan;102254.34;4161169;28;19929;-66
2023/04/09 02:08:08;;;;;;;;;;;;;;;4.27;nan;102251.13;4138746;28;20315;-66
2023/04/09 02:10:10;;;;;;;;;;;;;;;4.24;nan;102254.00;4139068;28;19936;-66
2023/04/09 02:12:13;;;;;;;;;;;;;;;4.18;nan;102262.41;4138456;28;19925;-66
2023/04/09 02:14:15;;;;;;;;;;;;;;;4.13;nan;102257.34;4137672;28;19926;-66
2023/04/09 02:16:18;;;;;;;;;;;;;;;4.07;nan;102255.91;4144717;28;19926;-65
2023/04/09 02:18:26;;;;;;;;;;;;;;;3.99;nan;102252.03;4138400;28;19930;-65
2023/04/09 02:20:28;;;;;;;;;;;;;;;3.89;nan;102252.59;4138447;28;20272;-65
2023/04/09 02:22:30;;;;;;;;;;;;;;;3.88;nan;102240.19;4138593;28;20304;-66
2023/04/09 02:24:32;;;;;;;;;;;;;;;3.93;nan;102239.91;4137375;28;20331;-66
2023/04/09 02:26:34;;;;;;;;;;;;;;;3.98;nan;102248.47;4137404;28;19930;-65
2023/04/09 02:28:37;;;;;;;;;;;;;;;4.00;nan;102251.94;4138300;28;19925;-65
2023/04/09 02:30:39;;;;;;;;;;;;;;;3.97;nan;102247.63;4144849;28;19926;-66
2023/04/09 02:32:41;;;;;;;;;;;;;;;3.88;nan;102245.53;4137656;28;20292;-65
2023/04/09 02:34:45;;;;;;;;;;;;;;;3.93;nan;102250.59;4138730;28;20614;-66
2023/04/09 02:36:47;;;;;;;;;;;;;;;3.92;nan;102254.25;4144438;28;19944;-65
2023/04/09 02:38:49;;;;;;;;;;;;;;;3.91;nan;102249.84;4138838;28;19929;-66
2023/04/09 02:40:52;;;;;;;;;;;;;;;3.92;nan;102255.09;4138457;28;19925;-65
2023/04/09 02:42:54;;;;;;;;;;;;;;;3.91;nan;102256.03;4137797;28;19929;-66
2023/04/09 02:44:56;;;;;;;;;;;;;;;3.91;nan;102249.84;4137612;28;19936;-66
2023/04/09 02:46:59;;;;;;;;;;;;;;;3.93;nan;102246.13;4144323;28;20493;-66
2023/04/09 02:49:01;;;;;;;;;;;;;;;3.96;nan;102243.22;4144540;28;19925;-66
2023/04/09 02:51:06;;;;;;;;;;;;;;;3.99;nan;102250.19;4144659;28;19932;-66
2023/04/09 02:53:08;;;;;;;;;;;;;;;3.98;nan;102237.78;4143795;28;19929;-66
2023/04/09 02:55:10;;;;;;;;;;;;;;;3.94;nan;102245.16;4138968;28;19952;-66
2023/04/09 02:57:12;;;;;;;;;;;;;;;3.86;nan;102239.44;4144245;28;19930;-66
2023/04/09 02:59:15;;;;;;;;;;;;;;;3.82;nan;102231.69;4138459;28;19940;-66
2023/04/09 03:01:17;;;;;;;;;;;;;;;3.82;nan;102245.06;4153565;28;19930;-66
2023/04/09 03:03:19;;;;;;;;;;;;;;;3.80;nan;102239.81;4143693;28;20359;-65
2023/04/09 03:05:21;;;;;;;;;;;;;;;3.75;nan;102255.28;4144501;28;20312;-66
2023/04/09 03:07:25;;;;;;;;;;;;;;;3.73;nan;102243.81;4143949;28;19929;-65
2023/04/09 03:09:28;;;;;;;;;;;;;;;3.71;nan;102243.06;4138339;28;19930;-65
2023/04/09 03:11:30;;;;;;;;;;;;;;;3.70;nan;102231.53;4138557;28;19931;-66
2023/04/09 03:13:32;;;;;;;;;;;;;;;3.73;nan;102233.13;4125998;28;19930;-66
2023/04/09 03:15:34;;;;;;;;;;;;;;;3.74;nan;102234.84;4124238;28;19930;-66
2023/04/09 03:17:37;;;;;;;;;;;;;;;3.69;nan;102228.94;4146589;28;20315;-65
2023/04/09 03:19:39;;;;;;;;;;;;;;;3.66;nan;102229.97;4132820;28;19936;-66
2023/04/09 03:21:41;;;;;;;;;;;;;;;3.66;nan;102229.13;4132442;28;19930;-66
2023/04/09 03:23:44;;;;;;;;;;;;;;;3.65;nan;102230.94;4155726;28;19932;-66
2023/04/09 03:25:47;;;;;;;;;;;;;;;3.63;nan;102223.97;4147237;28;19932;-65
2023/04/09 03:27:51;;;;;;;;;;;;;;;3.55;nan;102222.63;4156349;28;20303;-66
2023/04/09 03:30:03;;;;;;;;;;;;;;;3.50;nan;102222.06;4156485;28;19929;-65
2023/04/09 03:32:13;;;;;;;;;;;;;;;3.55;nan;102227.13;4145719;28;19931;-65
2023/04/09 03:34:16;;;;;;;;;;;;;;;3.55;nan;102227.97;4154557;28;19932;-66
2023/04/09 03:36:18;;;;;;;;;;;;;;;3.50;nan;102230.06;4157229;28;19929;-65
2023/04/09 03:38:30;;;;;;;;;;;;;;;3.49;nan;102232.84;4125336;28;19933;-66
2023/04/09 03:40:37;;;;;;;;;;;;;;;3.43;nan;102234.06;4131334;28;19940;-66
2023/04/09 03:42:39;;;;;;;;;;;;;;;3.36;nan;102233.59;4138244;28;19930;-66
2023/04/09 03:44:43;;;;;;;;;;;;;;;3.34;nan;102232.84;4147390;28;19980;-66
2023/04/09 03:46:49;;;;;;;;;;;;;;;3.32;nan;102232.03;4145321;28;19925;-66
2023/04/09 03:48:54;;;;;;;;;;;;;;;3.33;nan;102230.25;4131119;28;19934;-66
2023/04/09 03:50:57;;;;;;;;;;;;;;;3.33;nan;102236.44;4131174;28;19929;-66
2023/04/09 03:53:10;;;;;;;;;;;;;;;3.34;nan;102239.97;4129406;28;20286;-66
2023/04/09 03:55:13;;;;;;;;;;;;;;;3.32;nan;102234.72;4124556;28;19926;-66
2023/04/09 03:57:16;;;;;;;;;;;;;;;3.29;nan;102234.94;4123717;28;19963;-66
2023/04/09 03:59:21;;;;;;;;;;;;;;;3.25;nan;102228.88;4139292;28;19930;-66
2023/04/09 04:01:23;;;;;;;;;;;;;;;3.23;nan;102232.63;4139296;28;20399;-66
2023/04/09 04:03:33;;;;;;;;;;;;;;;3.19;nan;102237.28;4122121;28;19936;-66
2023/04/09 04:06:07;;;;;;;;;;;;;;;3.15;nan;102235.75;4127144;28;19926;-66
2023/04/09 04:08:26;;;;;;;;;;;;;;;3.14;nan;102242.03;4128277;28;19926;-66
2023/04/09 04:10:29;;;;;;;;;;;;;;;3.14;nan;102230.50;4123615;28;20381;-66
2023/04/09 04:12:32;;;;;;;;;;;;;;;3.17;nan;102228.50;4124301;28;20377;-65
2023/04/09 04:14:48;;;;;;;;;;;;;;;3.23;nan;102241.50;4130829;28;19985;-66
2023/04/09 04:16:58;;;;;;;;;;;;;;;3.25;nan;102238.72;4138497;28;19926;-66
2023/04/09 04:19:04;;;;;;;;;;;;;;;3.24;nan;102243.22;4123330;28;20301;-66
2023/04/09 04:21:12;;;;;;;;;;;;;;;3.20;nan;102241.66;4123022;28;20230;-65
2023/04/09 04:23:16;;;;;;;;;;;;;;;3.20;nan;102239.00;4137614;28;19925;-65
2023/04/09 04:25:41;;;;;;;;;;;;;;;3.21;nan;102242.53;4124347;28;20314;-65
2023/04/09 04:27:48;;;;;;;;;;;;;;;3.20;nan;102244.34;4122893;28;19953;-65
2023/04/09 04:29:53;;;;;;;;;;;;;;;3.21;nan;102240.72;4130099;28;19932;-65
2023/04/09 04:32:11;;;;;;;;;;;;;;;3.20;nan;102247.00;4129428;28;19938;-66
2023/04/09 04:34:13;;;;;;;;;;;;;;;3.18;nan;102242.69;4106542;28;20495;-65
2023/04/09 04:36:18;;;;;;;;;;;;;;;3.16;nan;102248.13;4122325;28;19930;-66
2023/04/09 04:38:26;;;;;;;;;;;;;;;3.09;nan;102254.81;4122318;28;19933;-65
2023/04/09 04:40:29;;;;;;;;;;;;;;;3.03;nan;102258.69;4130010;28;19933;-65
2023/04/09 04:42:36;;;;;;;;;;;;;;;2.96;nan;102268.03;4129732;28;19936;-65
2023/04/09 04:44:46;;;;;;;;;;;;;;;2.88;nan;102268.47;4139065;28;19932;-65
2023/04/09 04:47:04;;;;;;;;;;;;;;;2.99;nan;102265.16;4129650;28;19929;-66
2023/04/09 04:49:06;;;;;;;;;;;;;;;3.17;nan;102273.03;4124019;28;19934;-66
2023/04/09 04:51:16;;;;;;;;;;;;;;;3.33;nan;102275.66;4122902;28;19930;-66
2023/04/09 04:53:30;;;;;;;;;;;;;;;3.46;nan;102273.09;4128999;28;19952;-65
2023/04/09 04:55:36;;;;;;;;;;;;;;;3.58;nan;102281.22;4121961;28;19926;-65
2023/04/09 04:57:39;;;;;;;;;;;;;;;3.65;nan;102283.50;4129559;28;19926;-65
2023/04/09 04:59:41;;;;;;;;;;;;;;;3.69;nan;102288.56;4138757;28;20380;-65
2023/04/09 05:01:47;;;;;;;;;;;;;;;3.77;nan;102285.44;4138867;28;19936;-65
2023/04/09 05:03:49;;;;;;;;;;;;;;;3.83;nan;102289.56;4122023;28;19937;-65
2023/04/09 05:06:17;;;;;;;;;;;;;;;3.89;nan;102290.03;4124303;28;20303;-65
2023/04/09 05:08:21;;;;;;;;;;;;;;;3.95;nan;102299.50;4122929;28;19925;-65
2023/04/09 05:10:26;;;;;;;;;;;;;;;4.01;nan;102298.22;4139027;28;20480;-65
2023/04/09 05:12:31;;;;;;;;;;;;;;;4.04;nan;102287.34;4122688;28;19932;-65
2023/04/09 05:14:33;;;;;;;;;;;;;;;4.09;nan;102296.81;4123287;28;19949;-65
2023/04/09 05:16:36;;;;;;;;;;;;;;;4.09;nan;102296.81;4137954;28;19926;-65
2023/04/09 05:18:42;;;;;;;;;;;;;;;4.08;nan;102294.22;4137550;28;19932;-65
2023/04/09 05:20:44;;;;;;;;;;;;;;;4.04;nan;102293.53;4160894;28;19932;-65
2023/04/09 05:22:46;;;;;;;;;;;;;;;4.07;nan;102297.84;4141265;28;20338;-65
2023/04/09 05:24:49;;;;;;;;;;;;;;;4.13;nan;102294.78;4153626;28;19929;-65
2023/04/09 05:26:51;;;;;;;;;;;;;;;4.20;nan;102303.28;4141819;28;19933;-65
2023/04/09 05:28:54;;;;;;;;;;;;;;;4.21;nan;102299.66;4123404;28;19932;-65
2023/04/09 05:30:58;;;;;;;;;;;;;;;4.24;nan;102300.31;4122173;28;19952;-65
2023/04/09 05:33:00;;;;;;;;;;;;;;;4.33;nan;102299.72;4128234;28;19973;-65
2023/04/09 05:35:05;;;;;;;;;;;;;;;4.40;nan;102299.34;4122756;28;19925;-65
2023/04/09 05:37:13;;;;;;;;;;;;;;;4.47;nan;102304.19;4121444;28;19930;-65
2023/04/09 05:39:16;;;;;;;;;;;;;;;4.49;nan;102304.09;4154685;28;19951;-65
2023/04/09 05:41:20;;;;;;;;;;;;;;;4.46;nan;102296.28;4154571;28;20351;-65
2023/04/09 05:43:36;;;;;;;;;;;;;;;4.42;nan;102292.94;4121499;28;19930;-65
2023/04/09 05:45:39;;;;;;;;;;;;;;;4.34;nan;102289.88;4123632;28;19941;-65
2023/04/09 05:47:41;;;;;;;;;;;;;;;4.30;nan;102296.41;4121892;28;20316;-65
2023/04/09 05:49:52;;;;;;;;;;;;;;;4.32;nan;102289.97;4138131;28;19933;-65
2023/04/09 05:51:56;;;;;;;;;;;;;;;4.33;nan;102289.03;4120762;28;19940;-65
2023/04/09 05:54:04;;;;;;;;;;;;;;;4.33;nan;102288.19;4121699;28;19936;-65
2023/04/09 05:56:13;;;;;;;;;;;;;;;4.39;nan;102286.91;4121498;28;20273;-65
2023/04/09 05:58:23;;;;;;;;;;;;;;;4.39;nan;102279.75;4144260;28;20426;-65
2023/04/09 06:00:25;;;;;;;;;;;;;;;4.42;nan;102284.91;4128675;28;19929;-65
2023/04/09 06:02:27;;;;;;;;;;;;;;;4.45;nan;102283.84;4128268;28;19934;-65
2023/04/09 06:04:30;;;;;;;;;;;;;;;4.45;nan;102284.72;4128212;28;19932;-65
2023/04/09 06:06:32;;;;;;;;;;;;;;;4.48;nan;102278.28;4136802;28;19925;-65
2023/04/09 06:08:37;;;;;;;;;;;;;;;4.50;nan;102274.56;4122058;28;19945;-65
2023/04/09 06:10:39;;;;;;;;;;;;;;;4.53;nan;102278.00;4122839;28;19926;-65
2023/04/09 06:12:41;;;;;;;;;;;;;;;4.54;nan;102285.06;4121663;28;19926;-65
2023/04/09 06:14:44;;;;;;;;;;;;;;;4.57;nan;102279.53;4136621;28;19926;-65
2023/04/09 06:16:46;;;;;;;;;;;;;;;4.58;nan;102279.41;4122041;28;19941;-65
2023/04/09 06:18:53;;;;;;;;;;;;;;;4.64;nan;102291.53;4121839;28;19926;-66
2023/04/09 06:21:01;;;;;;;;;;;;;;;4.67;nan;102285.97;4122580;28;20396;-66
2023/04/09 06:23:03;;;;;;;;;;;;;;;4.71;nan;102289.31;4127259;28;19932;-66
2023/04/09 06:25:07;;;;;;;;;;;;;;;4.74;nan;102291.81;4122860;28;19930;-66
2023/04/09 06:27:09;;;;;;;;;;;;;;;4.74;nan;102284.63;4121472;28;19926;-67
2023/04/09 06:29:11;;;;;;;;;;;;;;;4.72;nan;102289.22;4123075;28;19932;-66
2023/04/09 06:31:14;;;;;;;;;;;;;;;4.77;nan;102292.44;4122732;28;20282;-66
2023/04/09 06:33:16;;;;;;;;;;;;;;;4.83;nan;102293.88;4122303;28;19940;-66
2023/04/09 06:35:18;;;;;;;;;;;;;;;4.81;nan;102277.91;4122944;28;19940;-65
2023/04/09 06:37:21;;;;;;;;;;;;;;;4.93;nan;102294.97;4121960;28;19932;-66
2023/04/09 06:39:23;;;;;;;;;;;;;;;4.94;nan;102298.53;4122862;28;19936;-66
2023/04/09 06:41:27;;;;;;;;;;;;;;;4.93;nan;102289.63;4124081;28;19940;-65
2023/04/09 06:43:29;;;;;;;;;;;;;;;4.90;nan;102305.03;4123243;28;20428;-65
2023/04/09 06:45:32;;;;;;;;;;;;;;;4.92;nan;102295.06;4123040;28;19926;-65
2023/04/09 06:47:34;;;;;;;;;;;;;;;4.97;nan;102299.16;4126660;28;19932;-66
2023/04/09 06:49:37;;;;;;;;;;;;;;;5.03;nan;102289.84;4128099;28;19925;-65
2023/04/09 06:51:39;;;;;;;;;;;;;;;5.07;nan;102299.41;4128287;28;19959;-65
2023/04/09 06:53:41;;;;;;;;;;;;;;;5.09;nan;102300.16;4143649;28;20419;-66
2023/04/09 06:55:43;;;;;;;;;;;;;;;5.12;nan;102307.97;4144363;28;19925;-66
2023/04/09 06:57:46;;;;;;;;;;;;;;;5.14;nan;102299.84;4143439;28;20267;-66
2023/04/09 06:59:49;;;;;;;;;;;;;;;5.16;nan;102304.16;4144494;28;19930;-66
2023/04/09 07:01:51;;;;;;;;;;;;;;;5.18;nan;102309.41;4143908;28;19930;-65
2023/04/09 07:03:53;;;;;;;;;;;;;;;5.22;nan;102305.56;4143854;28;19929;-66
2023/04/09 07:05:56;;;;;;;;;;;;;;;5.24;nan;102311.66;4143933;28;19926;-66
2023/04/09 07:07:58;;;;;;;;;;;;;;;5.29;nan;102306.00;4142928;28;19926;-66
2023/04/09 07:10:01;;;;;;;;;;;;;;;5.32;nan;102303.13;4148202;28;20861;-66
2023/04/09 07:12:03;;;;;;;;;;;;;;;5.35;nan;102302.91;4142978;28;19926;-65
2023/04/09 07:14:07;;;;;;;;;;;;;;;5.38;nan;102308.91;4143739;28;19938;-66
2023/04/09 07:16:09;;;;;;;;;;;;;;;5.40;nan;102320.38;4143756;28;19929;-66
2023/04/09 07:18:11;;;;;;;;;;;;;;;5.44;nan;102318.38;4143326;28;20309;-65
2023/04/09 07:20:13;;;;;;;;;;;;;;;5.50;nan;102327.78;4143777;28;19932;-65
2023/04/09 07:22:15;;;;;;;;;;;;;;;5.55;nan;102325.66;4142542;28;19925;-66
2023/04/09 07:24:19;;;;;;;;;;;;;;;5.62;nan;102318.06;4143093;28;21430;-66
2023/04/09 07:26:21;;;;;;;;;;;;;;;5.64;nan;102308.94;4144051;28;19944;-66
2023/04/09 07:28:23;;;;;;;;;;;;;;;5.66;nan;102307.03;4143032;28;20330;-65
2023/04/09 07:30:27;;;;;;;;;;;;;;;5.71;nan;102317.41;4143114;28;19936;-66
2023/04/09 07:32:29;;;;;;;;;;;;;;;5.74;nan;102309.16;4143492;28;19930;-66
2023/04/09 07:34:32;;;;;;;;;;;;;;;5.75;nan;102317.09;4143564;28;20395;-66
2023/04/09 07:36:34;;;;;;;;;;;;;;;5.81;nan;102318.47;4143501;28;19926;-65
2023/04/09 07:38:36;;;;;;;;;;;;;;;5.84;nan;102318.25;4143190;28;19925;-65
2023/04/09 07:40:38;;;;;;;;;;;;;;;5.89;nan;102310.78;4142608;28;19930;-66
2023/04/09 07:42:41;;;;;;;;;;;;;;;5.95;nan;102309.47;4140852;28;19926;-66
2023/04/09 07:44:43;;;;;;;;;;;;;;;5.99;nan;102310.13;4142941;28;19926;-66
2023/04/09 07:46:46;;;;;;;;;;;;;;;6.03;nan;102314.31;4142317;28;20300;-66
2023/04/09 07:48:49;;;;;;;;;;;;;;;6.07;nan;102314.00;4142117;28;19929;-65
2023/04/09 07:50:51;;;;;;;;;;;;;;;6.11;nan;102318.19;4140767;28;20458;-66
2023/04/09 07:52:53;;;;;;;;;;;;;;;6.16;nan;102306.25;4139455;28;19936;-66
2023/04/09 07:54:56;;;;;;;;;;;;;;;6.20;nan;102302.41;4141625;28;19951;-66
2023/04/09 07:56:58;;;;;;;;;;;;;;;6.25;nan;102309.16;4141120;28;19925;-66
2023/04/09 07:59:00;;;;;;;;;;;;;;;6.32;nan;102304.19;4138572;28;19929;-66
2023/04/09 08:01:02;;;;;;;;;;;;;;;6.38;nan;102303.75;4139437;28;19936;-66
2023/04/09 08:03:06;;;;;;;;;;;;;;;6.44;nan;102303.31;4139361;28;19932;-66
2023/04/09 08:05:09;;;;;;;;;;;;;;;6.52;nan;102310.81;4140554;28;19933;-66
2023/04/09 08:07:11;;;;;;;;;;;;;;;6.58;nan;102305.00;4140028;28;19932;-65
2023/04/09 08:09:13;;;;;;;;;;;;;;;6.64;nan;102306.34;4140343;28;19936;-65
2023/04/09 08:11:16;;;;;;;;;;;;;;;6.69;nan;102312.22;4140483;28;20331;-66
2023/04/09 08:13:18;;;;;;;;;;;;;;;6.74;nan;102317.28;4139507;28;19932;-66
2023/04/09 08:15:21;;;;;;;;;;;;;;;6.77;nan;102317.91;4140113;28;19930;-66
2023/04/09 08:17:23;;;;;;;;;;;;;;;6.81;nan;102319.38;4139864;28;19925;-66
2023/04/09 08:19:26;;;;;;;;;;;;;;;6.87;nan;102312.72;4140498;28;19926;-66
2023/04/09 08:21:29;;;;;;;;;;;;;;;6.92;nan;102321.28;4140680;28;20273;-66
2023/04/09 08:23:31;;;;;;;;;;;;;;;6.97;nan;102320.94;4140009;28;19925;-66
2023/04/09 08:25:33;;;;;;;;;;;;;;;7.01;nan;102322.44;4140550;28;19929;-66
2023/04/09 08:27:35;;;;;;;;;;;;;;;7.06;nan;102328.31;4139858;28;20296;-65
2023/04/09 08:29:39;;;;;;;;;;;;;;;7.08;nan;102329.03;4140173;28;20466;-66
2023/04/09 08:31:41;;;;;;;;;;;;;;;7.12;nan;102327.00;4139953;28;19936;-66
2023/04/09 08:33:44;;;;;;;;;;;;;;;7.17;nan;102325.66;4139908;28;19926;-66
2023/04/09 08:35:47;;;;;;;;;;;;;;;7.22;nan;102322.63;4140414;28;19926;-66
2023/04/09 08:37:49;;;;;;;;;;;;;;;7.27;nan;102317.75;4139733;28;19926;-66
2023/04/09 08:39:51;;;;;;;;;;;;;;;7.34;nan;102329.78;4140171;28;19933;-65
2023/04/09 08:41:54;;;;;;;;;;;;;;;7.38;nan;102323.19;4139231;28;19926;-66
2023/04/09 08:43:57;;;;;;;;;;;;;;;7.45;nan;102320.88;4140021;28;19926;-66
2023/04/09 08:46:02;;;;;;;;;;;;;;;7.49;nan;102326.88;4140212;28;19932;-65
2023/04/09 08:48:04;;;;;;;;;;;;;;;7.52;nan;102321.25;4139603;28;19930;-66
2023/04/09 08:50:06;;;;;;;;;;;;;;;7.56;nan;102325.44;4140116;28;19995;-65
2023/04/09 08:52:10;;;;;;;;;;;;;;;7.62;nan;102316.91;4139154;28;19932;-66
2023/04/09 08:54:14;;;;;;;;;;;;;;;7.65;nan;102316.66;4140298;28;19956;-65
2023/04/09 08:56:16;;;;;;;;;;;;;;;7.71;nan;102316.19;4139486;28;19926;-65
2023/04/09 08:58:18;;;;;;;;;;;;;;;7.77;nan;102317.53;4139430;28;19930;-65
2023/04/09 09:00:21;;;;;;;;;;;;;;;7.81;nan;102315.47;4140075;28;20340;-65
2023/04/09 09:02:23;;;;;;;;;;;;;;;7.83;nan;102313.50;4139093;28;19930;-66
2023/04/09 09:04:25;;;;;;;;;;;;;;;7.89;nan;102307.66;4139906;28;19937;-65
2023/04/09 09:06:28;;;;;;;;;;;;;;;7.92;nan;102313.63;4139859;28;20686;-65
2023/04/09 09:08:32;;;;;;;;;;;;;;;7.94;nan;102311.66;4139242;28;19930;-66
2023/04/09 09:10:38;;;;;;;;;;;;;;;7.97;nan;102304.34;4139138;28;20315;-66
2023/04/09 09:12:41;;;;;;;;;;;;;;;7.99;nan;102308.63;4138844;28;20380;-66
2023/04/09 09:14:44;;;;;;;;;;;;;;;8.02;nan;102304.84;4139543;28;19932;-66
2023/04/09 09:17:03;;;;;;;;;;;;;;;8.05;nan;102302.75;4129104;28;19936;-66
2023/04/09 09:19:06;;;;;;;;;;;;;;;8.07;nan;102306.19;4152318;28;19925;-66
2023/04/09 09:21:11;;;;;;;;;;;;;;;8.04;nan;102298.38;4139205;28;19926;-65
2023/04/09 09:23:13;;;;;;;;;;;;;;;8.06;nan;102304.47;4138265;28;19936;-65
2023/04/09 09:25:17;;;;;;;;;;;;;;;8.11;nan;102299.56;4161800;28;19929;-66
2023/04/09 09:27:32;;;;;;;;;;;;;;;8.18;nan;102294.56;4139513;28;19929;-66
2023/04/09 09:29:36;;;;;;;;;;;;;;;8.24;nan;102296.75;4139336;28;19930;-66
2023/04/09 09:31:46;;;;;;;;;;;;;;;8.23;nan;102299.59;4139148;28;20303;-66
2023/04/09 09:33:49;;;;;;;;;;;;;;;8.23;nan;102288.81;4138462;28;21580;-66
2023/04/09 09:35:52;;;;;;;;;;;;;;;8.25;nan;102287.69;4139348;28;19932;-66
2023/04/09 09:38:02;;;;;;;;;;;;;;;8.25;nan;102290.41;4138318;28;20386;-66
2023/04/09 09:40:04;;;;;;;;;;;;;;;8.33;nan;102292.47;4139892;28;20410;-65
2023/04/09 09:42:08;;;;;;;;;;;;;;;8.40;nan;102291.00;4138700;28;19929;-66
2023/04/09 09:44:11;;;;;;;;;;;;;;;8.41;nan;102287.31;4139248;28;19930;-65
2023/04/09 09:46:13;;;;;;;;;;;;;;;8.41;nan;102291.84;4138883;28;20021;-66
2023/04/09 09:48:15;;;;;;;;;;;;;;;8.43;nan;102280.00;4138196;28;19936;-65
2023/04/09 09:50:17;;;;;;;;;;;;;;;8.45;nan;102287.97;4138864;28;19936;-65
2023/04/09 09:52:21;;;;;;;;;;;;;;;8.49;nan;102278.63;4138348;28;20292;-65
2023/04/09 09:54:23;;;;;;;;;;;;;;;8.51;nan;102281.19;4138756;28;19930;-66
2023/04/09 09:56:31;;;;;;;;;;;;;;;8.55;nan;102285.38;4138721;28;19936;-65
2023/04/09 09:58:36;;;;;;;;;;;;;;;8.60;nan;102275.91;4138310;28;19936;-65
2023/04/09 10:00:38;;;;;;;;;;;;;;;8.61;nan;102282.19;4138757;28;19925;-63
2023/04/09 10:02:43;;;;;;;;;;;;;;;8.62;nan;102279.34;4138224;28;19929;-65
2023/04/09 10:04:45;;;;;;;;;;;;;;;8.61;nan;102280.31;4138667;28;19932;-66
2023/04/09 10:06:48;;;;;;;;;;;;;;;8.64;nan;102285.47;4137702;28;19926;-65
2023/04/09 10:08:51;;;;;;;;;;;;;;;8.68;nan;102283.38;4138556;28;20005;-65
2023/04/09 10:10:53;;;;;;;;;;;;;;;8.70;nan;102277.84;4138737;28;19929;-65
2023/04/09 10:12:55;;;;;;;;;;;;;;;8.78;nan;102275.41;4138230;28;19930;-65
2023/04/09 10:15:03;;;;;;;;;;;;;;;8.83;nan;102278.56;4138489;28;19926;-66
2023/04/09 10:17:05;;;;;;;;;;;;;;;8.83;nan;102273.16;4138163;28;19932;-65
2023/04/09 10:19:12;;;;;;;;;;;;;;;8.83;nan;102270.47;4121328;28;20304;-66
2023/04/09 10:21:17;;;;;;;;;;;;;;;8.86;nan;102278.31;4138779;28;19925;-65
2023/04/09 10:23:22;;;;;;;;;;;;;;;8.91;nan;102276.06;4138194;28;19929;-66
2023/04/09 10:25:25;;;;;;;;;;;;;;;8.97;nan;102277.41;4138654;28;19926;-66
2023/04/09 10:27:28;;;;;;;;;;;;;;;9.02;nan;102272.47;4137903;28;19989;-66
2023/04/09 10:29:31;;;;;;;;;;;;;;;9.05;nan;102276.75;4144806;28;20412;-67
2023/04/09 10:31:47;;;;;;;;;;;;;;;9.05;nan;102274.91;4138990;28;19932;-65
2023/04/09 10:33:50;;;;;;;;;;;;;;;9.09;nan;102270.97;4137639;28;20446;-65
2023/04/09 10:35:53;;;;;;;;;;;;;;;9.11;nan;102274.41;4139189;28;19926;-64
2023/04/09 10:37:55;;;;;;;;;;;;;;;9.14;nan;102274.13;4138647;28;19926;-65
2023/04/09 10:39:57;;;;;;;;;;;;;;;9.24;nan;102267.97;4138380;28;19926;-65
2023/04/09 10:42:00;;;;;;;;;;;;;;;9.30;nan;102280.94;4137742;28;19930;-65
2023/04/09 10:44:06;;;;;;;;;;;;;;;9.33;nan;102270.72;4138327;28;19925;-65
2023/04/09 10:46:09;;;;;;;;;;;;;;;9.35;nan;102266.03;4138792;28;20393;-65
2023/04/09 10:48:13;;;;;;;;;;;;;;;9.38;nan;102270.34;4137932;28;20319;-65
2023/04/09 10:50:16;;;;;;;;;;;;;;;9.43;nan;102272.63;4138636;28;19932;-65
2023/04/09 10:52:20;;;;;;;;;;;;;;;9.45;nan;102270.66;4137483;28;19947;-66
2023/04/09 10:54:44;;;;;;;;;;;;;;;9.48;nan;102273.09;4138442;28;19940;-65
2023/04/09 10:57:01;;;;;;;;;;;;;;;9.50;nan;102268.44;4138061;28;19971;-65
2023/04/09 10:59:03;;;;;;;;;;;;;;;9.53;nan;102277.09;4137751;28;20368;-65
2023/04/09 11:01:06;;;;;;;;;;;;;;;9.60;nan;102266.63;4138349;28;19948;-65
2023/04/09 11:03:20;;;;;;;;;;;;;;;9.67;nan;102270.50;4137703;28;20629;-65